Ganges, Canada
Current Conditions -  °F | °C
As of 5:00 PM on Saturday 25 Oct 2014 (Local Time) from CYYJ Reporting Station
Heavy Rain Heavy Rain  
Wind Chill: 50°   Ceiling: 800
Heat Index: 50°   Visibility: 1mi
Dew Point: 48°   Wind: 7mph
Humidity: 94%   Direction: 270°W
Pressure: 29.27"   Gusts: NA
Location:  48.85°N, 123.52°W
Report Text: CYYJ 260000Z 27006KT 1SM +RA BR FEW006 BKN008 OVC017 10/09 A2927 RMK SF2SC4NS2 SLP912 DENSITY ALT 200FT
Loading
Personal Weather Stations






























Interactive Weather Map
Tropical Storm Tracking
New forecast layout! Learn more

10-Day Weather Forecast

Advertisements
Track Severe Weather on mobile